Time;durP1;ratioP1;P1;durP2;ratioP2;P2;SDS_P1;SDS_P2;PMS_P1;PMS_P2;Temp;Humidity;BMP_temperature;BMP_pressure;BME280_temperature;BME280_humidity;BME280_pressure;Samples;Min_cycle;Max_cycle;Signal;HPM_P1;HPM_P2
2022/05/08 00:01:55;;;;;;;18.05;4.97;;;8.40;99.90;;;;;;5027990;28;20041;-67
2022/05/08 00:04:21;;;;;;;16.30;4.55;;;8.50;99.90;;;;;;5027551;28;20045;-63
2022/05/08 00:06:46;;;;;;;21.23;5.55;;;8.50;99.90;;;;;;5027868;28;20053;-66
2022/05/08 00:09:37;;;;;;;20.90;4.53;;;8.30;99.90;;;;;;5031935;28;20053;-68
2022/05/08 00:12:03;;;;;;;20.05;4.95;;;8.50;99.90;;;;;;5028784;28;20054;-66
2022/05/08 00:14:29;;;;;;;14.77;4.45;;;8.40;99.90;;;;;;5031247;28;20053;-63
2022/05/08 00:16:58;;;;;;;16.50;4.60;;;7.90;99.90;;;;;;5032469;28;20057;-65
2022/05/08 00:19:24;;;;;;;15.48;4.18;;;8.20;99.90;;;;;;5024256;28;20045;-65
2022/05/08 00:21:49;;;;;;;14.55;4.20;;;8.20;99.90;;;;;;5031293;28;20057;-64
2022/05/08 00:24:15;;;;;;;17.55;5.03;;;8.10;99.90;;;;;;5030974;28;20409;-65
2022/05/08 00:26:40;;;;;;;19.42;4.13;;;8.10;99.90;;;;;;5026721;28;20054;-66
2022/05/08 00:29:07;;;;;;;17.35;5.00;;;8.00;99.90;;;;;;5030892;28;20045;-68
2022/05/08 00:31:32;;;;;;;23.20;5.30;;;8.00;99.90;;;;;;5029895;28;20485;-66
2022/05/08 00:33:58;;;;;;;21.92;4.97;;;7.90;99.90;;;;;;5030911;28;20053;-66
2022/05/08 00:36:24;;;;;;;16.55;4.82;;;8.00;99.90;;;;;;5028797;28;20052;-67
2022/05/08 00:38:49;;;;;;;14.98;5.47;;;7.90;99.90;;;;;;5028242;28;20204;-66
2022/05/08 00:41:15;;;;;;;17.52;5.00;;;7.90;99.90;;;;;;5027419;28;20434;-67
2022/05/08 00:43:41;;;;;;;14.57;4.70;;;8.00;99.90;;;;;;5029765;28;20049;-67
2022/05/08 00:46:11;;;;;;;20.70;5.40;;;7.70;99.90;;;;;;5030983;28;20056;-65
2022/05/08 00:48:37;;;;;;;19.23;5.25;;;7.90;99.90;;;;;;5029979;28;20053;-67
2022/05/08 00:51:12;;;;;;;15.80;5.32;;;7.80;99.90;;;;;;5029517;28;20045;-66
2022/05/08 00:53:43;;;;;;;15.13;4.80;;;7.80;99.90;;;;;;5028802;28;20502;-67
2022/05/08 00:56:13;;;;;;;14.80;4.70;;;7.80;99.90;;;;;;5029657;28;20516;-66
2022/05/08 00:58:40;;;;;;;14.80;4.57;;;7.90;99.90;;;;;;5028488;28;20103;-66
2022/05/08 01:01:06;;;;;;;20.15;5.20;;;7.70;99.90;;;;;;5024475;28;20091;-67
2022/05/08 01:03:32;;;;;;;14.68;4.88;;;7.70;99.90;;;;;;5029643;28;20053;-65
2022/05/08 01:06:03;;;;;;;19.83;5.18;;;7.50;99.90;;;;;;5029091;28;20469;-65
2022/05/08 01:08:28;;;;;;;17.00;5.68;;;7.50;99.90;;;;;;5029376;28;20053;-67
2022/05/08 01:10:55;;;;;;;17.50;5.28;;;7.60;99.90;;;;;;5029991;28;20473;-65
2022/05/08 01:13:21;;;;;;;18.15;5.93;;;7.50;99.90;;;;;;5026355;28;20053;-66
2022/05/08 01:15:47;;;;;;;21.63;5.38;;;7.40;99.90;;;;;;5029109;28;20395;-65
2022/05/08 01:18:15;;;;;;;22.23;5.30;;;7.30;99.90;;;;;;5027738;28;20478;-65
2022/05/08 01:20:42;;;;;;;19.50;5.28;;;7.30;99.90;;;;;;5030902;28;20096;-64
2022/05/08 01:23:09;;;;;;;19.88;6.28;;;7.40;99.90;;;;;;5010821;28;20051;-67
2022/05/08 01:25:43;;;;;;;18.27;5.85;;;7.20;99.90;;;;;;5013813;28;20462;-65
2022/05/08 01:28:09;;;;;;;21.20;5.18;;;7.50;99.90;;;;;;5026533;28;20049;-66
2022/05/08 01:30:35;;;;;;;17.85;4.75;;;7.20;99.90;;;;;;5029625;28;20126;-66
2022/05/08 01:33:01;;;;;;;15.48;4.88;;;7.30;99.90;;;;;;5029433;28;20042;-67
2022/05/08 01:35:28;;;;;;;20.20;5.43;;;7.30;99.90;;;;;;5027614;28;20045;-65
2022/05/08 01:37:54;;;;;;;15.60;5.28;;;7.20;99.90;;;;;;5031791;28;20076;-65
2022/05/08 01:40:20;;;;;;;21.48;6.40;;;7.40;99.90;;;;;;5028323;28;20068;-66
2022/05/08 01:42:45;;;;;;;18.52;5.65;;;7.20;99.90;;;;;;5029281;28;20057;-66
2022/05/08 01:45:14;;;;;;;16.30;5.93;;;7.10;99.90;;;;;;5028765;28;20045;-67
2022/05/08 01:50:24;;;;;;;15.20;4.75;;;7.50;99.90;;;;;;5028753;28;20061;-67
2022/05/08 01:52:51;;;;;;;13.57;5.07;;;7.00;99.90;;;;;;5027965;28;20053;-65
2022/05/08 01:55:16;;;;;;;16.08;5.05;;;7.10;99.90;;;;;;5030708;28;20064;-66
2022/05/08 01:57:43;;;;;;;18.58;5.35;;;6.90;99.90;;;;;;5029177;28;20049;-66
2022/05/08 02:00:09;;;;;;;14.25;4.65;;;6.80;99.90;;;;;;5031286;28;20505;-66
2022/05/08 02:02:34;;;;;;;15.57;5.68;;;6.90;99.90;;;;;;5025455;28;20045;-64
2022/05/08 02:05:02;;;;;;;20.85;5.72;;;7.00;99.90;;;;;;5029399;28;20054;-66
2022/05/08 02:07:28;;;;;;;14.95;5.47;;;6.80;99.90;;;;;;5030666;28;20055;-66
2022/05/08 02:09:53;;;;;;;16.30;5.03;;;6.80;99.90;;;;;;5029775;28;20113;-67
2022/05/08 02:12:19;;;;;;;16.17;4.93;;;6.80;99.90;;;;;;5026163;28;20049;-66
2022/05/08 02:14:45;;;;;;;16.50;4.53;;;6.80;99.90;;;;;;5027288;28;20061;-66
2022/05/08 02:17:11;;;;;;;11.88;4.45;;;6.80;99.90;;;;;;5028351;28;20057;-66
2022/05/08 02:19:37;;;;;;;16.85;5.18;;;6.70;99.90;;;;;;5028782;28;20057;-67
2022/05/08 02:22:03;;;;;;;19.13;5.03;;;6.70;99.90;;;;;;5028092;28;20474;-67
2022/05/08 02:24:28;;;;;;;14.63;4.45;;;6.70;99.90;;;;;;5025676;28;20068;-67
2022/05/08 02:26:54;;;;;;;15.10;5.18;;;6.80;99.90;;;;;;5026016;28;20054;-65
2022/05/08 02:29:19;;;;;;;19.08;4.72;;;6.70;99.90;;;;;;5029003;28;20053;-67
2022/05/08 02:31:45;;;;;;;17.13;4.85;;;6.80;99.90;;;;;;5027489;28;20081;-66
2022/05/08 02:34:10;;;;;;;16.20;5.30;;;6.60;99.90;;;;;;5029580;28;20404;-67
2022/05/08 02:36:36;;;;;;;11.75;4.72;;;6.50;99.90;;;;;;5023796;28;20049;-66
2022/05/08 02:39:02;;;;;;;16.63;5.35;;;6.40;99.90;;;;;;5028061;28;20103;-65
2022/05/08 02:41:28;;;;;;;15.73;3.75;;;6.40;99.90;;;;;;5026045;28;20454;-66
2022/05/08 02:43:53;;;;;;;13.93;5.13;;;6.30;99.90;;;;;;5028799;28;20041;-66
2022/05/08 02:46:19;;;;;;;10.95;4.30;;;6.50;99.90;;;;;;5028130;28;20050;-66
2022/05/08 02:48:44;;;;;;;11.88;4.65;;;6.30;99.90;;;;;;5027240;28;20081;-67
2022/05/08 02:51:10;;;;;;;14.50;4.97;;;6.10;99.90;;;;;;5026213;28;20446;-65
2022/05/08 02:53:35;;;;;;;13.57;4.57;;;6.00;99.90;;;;;;5026726;28;20119;-67
2022/05/08 02:58:45;;;;;;;18.10;5.07;;;6.10;99.90;;;;;;5027791;28;20446;-67
2022/05/08 03:01:11;;;;;;;17.00;5.35;;;6.20;99.90;;;;;;5026989;28;20050;-65
2022/05/08 03:03:37;;;;;;;9.23;4.70;;;6.20;99.90;;;;;;5024735;28;20045;-66
2022/05/08 03:06:04;;;;;;;14.35;4.60;;;6.30;99.90;;;;;;5027873;28;20072;-68
2022/05/08 03:08:30;;;;;;;12.02;4.53;;;6.10;99.90;;;;;;5030171;28;20061;-67
2022/05/08 03:13:41;;;;;;;11.07;4.15;;;6.00;99.90;;;;;;5028761;28;20235;-67
2022/05/08 03:16:08;;;;;;;16.35;5.55;;;6.00;99.90;;;;;;5027095;28;20179;-68
2022/05/08 03:18:38;;;;;;;11.88;5.03;;;6.00;99.90;;;;;;5027716;28;20473;-67
2022/05/08 03:21:04;;;;;;;11.73;5.07;;;5.90;99.90;;;;;;5026903;28;20733;-66
2022/05/08 03:23:30;;;;;;;13.30;4.13;;;6.00;99.90;;;;;;5025212;28;20057;-66
2022/05/08 03:25:55;;;;;;;17.45;4.38;;;6.10;99.90;;;;;;5028490;28;20045;-67
2022/05/08 03:28:21;;;;;;;12.10;4.43;;;5.90;99.90;;;;;;5026542;28;20053;-66
2022/05/08 03:30:47;;;;;;;15.65;3.88;;;5.80;99.90;;;;;;5026755;28;20084;-66
2022/05/08 03:33:13;;;;;;;12.48;4.38;;;6.10;99.90;;;;;;5026405;28;20072;-66
2022/05/08 03:35:40;;;;;;;11.02;4.40;;;6.00;99.90;;;;;;5030491;28;20042;-66
2022/05/08 03:38:06;;;;;;;11.60;4.22;;;6.20;99.90;;;;;;5028390;28;20060;-65
2022/05/08 03:40:33;;;;;;;15.75;4.28;;;5.70;99.90;;;;;;5027257;28;20053;-65
2022/05/08 03:42:59;;;;;;;13.30;5.25;;;5.80;99.90;;;;;;5025831;28;20060;-67
2022/05/08 03:45:25;;;;;;;13.02;3.78;;;5.60;99.90;;;;;;5033477;28;20050;-65
2022/05/08 03:47:52;;;;;;;11.43;4.80;;;5.70;99.90;;;;;;5030508;28;20124;-65
2022/05/08 03:50:18;;;;;;;10.18;4.10;;;5.50;99.90;;;;;;5030052;28;20064;-67
2022/05/08 03:52:44;;;;;;;12.15;4.13;;;5.60;99.90;;;;;;5029738;28;20128;-67
2022/05/08 03:55:11;;;;;;;11.63;5.15;;;5.70;99.90;;;;;;5032363;28;20184;-66
2022/05/08 03:57:37;;;;;;;12.35;5.60;;;5.80;99.90;;;;;;5032941;28;20052;-66
2022/05/08 04:00:04;;;;;;;13.80;5.88;;;5.50;99.90;;;;;;5031884;28;20057;-67
2022/05/08 04:02:29;;;;;;;14.55;5.65;;;5.70;99.90;;;;;;5029604;28;20046;-67
2022/05/08 04:04:55;;;;;;;17.70;5.38;;;;;;;;;;5029807;28;20049;-66
2022/05/08 04:07:21;;;;;;;18.20;5.20;;;;;;;;;;5029046;28;20060;-67
2022/05/08 04:09:47;;;;;;;12.50;4.43;;;;;;;;;;5029586;28;20056;-64
2022/05/08 04:12:13;;;;;;;12.90;4.47;;;;;;;;;;5030784;28;20053;-63
2022/05/08 04:14:39;;;;;;;14.10;5.40;;;;;;;;;;5030352;28;20490;-62
2022/05/08 04:17:05;;;;;;;21.15;6.22;;;5.80;99.90;;;;;;5029398;28;20081;-66
2022/05/08 04:19:31;;;;;;;10.85;4.93;;;5.90;99.90;;;;;;5030791;28;20061;-62
2022/05/08 04:24:41;;;;;;;13.57;4.70;;;6.10;99.90;;;;;;5030341;28;20053;-66
2022/05/08 04:27:07;;;;;;;15.23;4.93;;;5.90;99.90;;;;;;5031200;28;20052;-65
2022/05/08 04:29:32;;;;;;;11.77;5.03;;;5.90;99.90;;;;;;5029000;28;20083;-65
2022/05/08 04:31:58;;;;;;;9.88;4.22;;;6.00;99.90;;;;;;5030814;28;20137;-67
2022/05/08 04:34:23;;;;;;;12.88;5.32;;;5.90;99.90;;;;;;5031000;28;20045;-65
2022/05/08 04:36:49;;;;;;;16.60;4.65;;;5.90;99.90;;;;;;5030063;28;20060;-67
2022/05/08 04:39:15;;;;;;;11.45;4.53;;;6.10;99.90;;;;;;5032064;28;20052;-68
2022/05/08 04:41:40;;;;;;;12.98;5.10;;;6.00;99.90;;;;;;5030487;28;20493;-66
2022/05/08 04:44:06;;;;;;;13.85;5.53;;;6.00;99.90;;;;;;5027110;28;20050;-65
2022/05/08 04:46:31;;;;;;;16.73;5.35;;;6.10;99.90;;;;;;5029040;28;20489;-66
2022/05/08 04:48:57;;;;;;;13.88;5.47;;;6.10;99.90;;;;;;5031570;28;20722;-66
2022/05/08 04:51:23;;;;;;;14.95;5.63;;;6.20;99.90;;;;;;5030517;28;20103;-69
2022/05/08 04:53:51;;;;;;;13.65;5.80;;;6.20;99.90;;;;;;5026949;28;20063;-65
2022/05/08 04:56:17;;;;;;;12.90;5.43;;;7.50;99.90;;;;;;5029631;28;20455;-66
2022/05/08 04:58:43;;;;;;;17.02;5.70;;;;;;;;;;5029451;28;20072;-65
2022/05/08 05:01:08;;;;;;;16.55;5.70;;;5.10;99.90;;;;;;5026408;28;20103;-64
2022/05/08 05:03:34;;;;;;;13.18;5.65;;;6.60;99.90;;;;;;5030853;28;20056;-65
2022/05/08 05:05:59;;;;;;;9.82;5.30;;;6.60;99.90;;;;;;5030104;28;20072;-66
2022/05/08 05:08:25;;;;;;;21.58;6.20;;;6.70;99.90;;;;;;5030365;28;20046;-67
2022/05/08 05:10:52;;;;;;;31.40;6.28;;;6.90;99.90;;;;;;5028266;28;20132;-67
2022/05/08 05:13:18;;;;;;;10.10;4.68;;;6.70;99.90;;;;;;5028167;28;20041;-66
2022/05/08 05:15:43;;;;;;;18.88;5.97;;;6.80;99.90;;;;;;5029863;28;20068;-65
2022/05/08 05:18:09;;;;;;;16.40;6.07;;;6.90;99.90;;;;;;5026529;28;20041;-65
2022/05/08 05:20:35;;;;;;;17.33;6.10;;;7.00;99.90;;;;;;5029089;28;20053;-64
2022/05/08 05:23:04;;;;;;;14.93;5.75;;;7.10;99.90;;;;;;5027301;28;20083;-64
2022/05/08 05:25:30;;;;;;;17.67;5.50;;;7.10;99.90;;;;;;5030062;28;20049;-66
2022/05/08 05:27:56;;;;;;;16.40;6.57;;;7.20;99.90;;;;;;5026689;28;20050;-66
2022/05/08 05:30:23;;;;;;;13.93;5.30;;;7.20;99.90;;;;;;5029209;28;20045;-66
2022/05/08 05:32:49;;;;;;;13.00;5.13;;;7.30;99.90;;;;;;5027987;28;20068;-65
2022/05/08 05:35:14;;;;;;;12.07;4.57;;;7.50;99.90;;;;;;5028118;28;20474;-65
2022/05/08 05:37:40;;;;;;;18.77;5.00;;;7.90;99.90;;;;;;5029237;28;20156;-65
2022/05/08 05:40:09;;;;;;;16.67;5.72;;;8.70;99.90;;;;;;5033211;28;20057;-66
2022/05/08 05:42:35;;;;;;;10.32;4.00;;;9.90;99.90;;;;;;5032636;28;20057;-64
2022/05/08 05:45:00;;;;;;;12.95;4.40;;;11.00;99.90;;;;;;5032071;28;20398;-66
2022/05/08 05:50:11;;;;;;;14.10;3.70;;;12.60;99.90;;;;;;5032615;28;20061;-66
2022/05/08 05:52:37;;;;;;;9.63;3.70;;;13.20;99.90;;;;;;5023785;28;20141;-67
2022/05/08 05:55:06;;;;;;;11.65;3.90;;;13.90;99.90;;;;;;5023242;28;20072;-65
2022/05/08 05:57:33;;;;;;;12.60;3.60;;;14.30;99.90;;;;;;5027007;28;20049;-68
2022/05/08 05:59:59;;;;;;;8.40;3.20;;;14.80;99.90;;;;;;5026789;28;20060;-65
2022/05/08 06:02:25;;;;;;;8.93;2.95;;;14.90;99.90;;;;;;5029716;28;20053;-68
2022/05/08 06:04:50;;;;;;;11.43;3.30;;;15.00;99.90;;;;;;5031824;28;20128;-67
2022/05/08 06:07:16;;;;;;;6.22;2.58;;;15.20;99.90;;;;;;5031541;28;20050;-66
2022/05/08 06:09:42;;;;;;;9.23;3.38;;;15.40;99.90;;;;;;5031769;28;20080;-68
2022/05/08 06:12:07;;;;;;;7.45;2.95;;;15.60;99.90;;;;;;5033428;28;20541;-64
2022/05/08 06:14:33;;;;;;;7.07;2.42;;;15.70;99.90;;;;;;5032206;28;20446;-66
2022/05/08 06:16:59;;;;;;;10.73;3.03;;;15.60;99.90;;;;;;5030378;28;20125;-67
2022/05/08 06:19:24;;;;;;;8.32;3.33;;;14.80;99.90;;;;;;5030527;28;20041;-65
2022/05/08 06:21:50;;;;;;;8.25;2.75;;;13.80;99.90;;;;;;5031679;28;20129;-66
2022/05/08 06:24:15;;;;;;;7.57;2.78;;;13.50;99.90;;;;;;5032287;28;20477;-66
2022/05/08 06:26:41;;;;;;;9.55;2.80;;;12.50;99.90;;;;;;5015502;28;20410;-64
2022/05/08 06:29:07;;;;;;;6.85;2.13;;;12.20;99.90;;;;;;5032114;28;20045;-65
2022/05/08 06:31:32;;;;;;;7.38;2.25;;;12.00;99.90;;;;;;5031425;28;20453;-66
2022/05/08 06:33:59;;;;;;;8.98;2.97;;;;;;;;;;5031564;28;20057;-66
2022/05/08 06:36:26;;;;;;;5.25;1.95;;;11.50;99.90;;;;;;5031523;28;20053;-66
2022/05/08 06:38:52;;;;;;;5.75;2.05;;;11.20;99.90;;;;;;5027575;28;20162;-67
2022/05/08 06:41:18;;;;;;;6.63;2.10;;;11.40;99.90;;;;;;5026546;28;20056;-66
2022/05/08 06:43:44;;;;;;;4.88;1.98;;;11.40;99.90;;;;;;5032981;28;20057;-66
2022/05/08 06:46:11;;;;;;;7.28;2.22;;;11.40;99.90;;;;;;5029722;28;20050;-66
2022/05/08 06:48:38;;;;;;;8.55;2.38;;;11.50;99.90;;;;;;5029493;28;20112;-67
2022/05/08 06:51:04;;;;;;;6.45;1.80;;;11.70;99.90;;;;;;5030599;28;20076;-67
2022/05/08 06:53:31;;;;;;;6.38;1.73;;;11.70;99.90;;;;;;5031765;28;20072;-65
2022/05/08 06:55:57;;;;;;;8.27;1.95;;;11.70;99.90;;;;;;5014334;28;20049;-65
2022/05/08 06:58:24;;;;;;;8.73;1.60;;;11.60;99.90;;;;;;5030460;28;20045;-64
2022/05/08 07:03:35;;;;;;;5.72;2.03;;;11.60;99.90;;;;;;5032357;28;20057;-65
2022/05/08 07:06:01;;;;;;;11.20;1.83;;;11.60;99.90;;;;;;5031287;28;20137;-66
2022/05/08 07:08:27;;;;;;;6.22;1.60;;;11.60;99.90;;;;;;5031012;28;20058;-65
2022/05/08 07:10:53;;;;;;;5.43;1.60;;;11.70;99.90;;;;;;5031375;28;20059;-65
2022/05/08 07:13:22;;;;;;;5.63;1.70;;;11.70;99.90;;;;;;5030676;28;20054;-67
2022/05/08 07:15:53;;;;;;;6.38;2.10;;;11.90;99.90;;;;;;5032289;28;20098;-67
2022/05/08 07:18:21;;;;;;;8.70;1.60;;;12.30;99.90;;;;;;5032948;28;20049;-65
2022/05/08 07:20:47;;;;;;;4.38;2.05;;;12.30;99.90;;;;;;5034216;28;20561;-67
2022/05/08 07:23:12;;;;;;;7.18;1.63;;;12.50;99.90;;;;;;5035032;28;20049;-66
2022/05/08 07:25:39;;;;;;;8.43;1.42;;;12.60;99.90;;;;;;5034747;28;20064;-65
2022/05/08 07:28:05;;;;;;;3.25;1.27;;;12.80;99.90;;;;;;5034534;28;20350;-66
2022/05/08 07:30:31;;;;;;;5.28;1.85;;;12.70;99.90;;;;;;5034316;28;20049;-68
2022/05/08 07:33:01;;;;;;;6.70;1.40;;;12.80;99.90;;;;;;5033526;28;20059;-68
2022/05/08 07:38:11;;;;;;;5.95;1.95;;;12.60;99.90;;;;;;5036494;28;20057;-65
2022/05/08 07:40:36;;;;;;;6.72;2.00;;;13.00;99.90;;;;;;5035835;28;20046;-66
2022/05/08 07:43:03;;;;;;;5.75;1.65;;;12.60;99.90;;;;;;5035028;28;20049;-64
2022/05/08 07:45:29;;;;;;;7.03;1.90;;;12.40;99.90;;;;;;5034435;28;20486;-67
2022/05/08 07:47:55;;;;;;;6.50;1.70;;;12.50;99.90;;;;;;5032937;28;20056;-65
2022/05/08 07:50:21;;;;;;;5.32;1.60;;;12.30;99.90;;;;;;5032938;28;20057;-66
2022/05/08 07:52:47;;;;;;;6.03;1.55;;;12.60;99.90;;;;;;5034017;28;20490;-66
2022/05/08 07:55:12;;;;;;;5.22;1.70;;;12.90;99.90;;;;;;5035564;28;20122;-68
2022/05/08 07:57:38;;;;;;;5.60;1.80;;;12.80;99.90;;;;;;5033900;28;20466;-66
2022/05/08 08:00:05;;;;;;;11.73;1.67;;;12.60;99.90;;;;;;5034852;28;20112;-66
2022/05/08 08:02:31;;;;;;;6.82;1.55;;;12.80;99.90;;;;;;5024459;28;20061;-66
2022/05/08 08:04:56;;;;;;;6.28;1.98;;;12.80;99.90;;;;;;5026801;28;20056;-67
2022/05/08 08:07:22;;;;;;;6.85;1.63;;;12.90;99.90;;;;;;5033134;28;20107;-67
2022/05/08 08:09:48;;;;;;;5.60;1.85;;;12.90;99.90;;;;;;5034964;28;20133;-66
2022/05/08 08:12:13;;;;;;;6.63;1.60;;;13.00;99.90;;;;;;5034643;28;20053;-66
2022/05/08 08:14:39;;;;;;;7.63;2.03;;;13.10;99.90;;;;;;5034993;28;20049;-64
2022/05/08 08:17:04;;;;;;;7.40;1.90;;;13.10;99.90;;;;;;5033255;28;20052;-66
2022/05/08 08:19:30;;;;;;;4.82;2.00;;;13.30;99.90;;;;;;5034219;28;20049;-66
2022/05/08 08:21:56;;;;;;;8.45;2.25;;;13.40;99.90;;;;;;5033198;28;20172;-65
2022/05/08 08:24:21;;;;;;;6.97;1.95;;;13.50;99.90;;;;;;5033238;28;20057;-65
2022/05/08 08:26:47;;;;;;;11.32;2.20;;;13.50;99.90;;;;;;5033422;28;20072;-65
2022/05/08 08:29:14;;;;;;;7.07;1.80;;;13.40;99.90;;;;;;5033940;28;20098;-64
2022/05/08 08:31:39;;;;;;;4.10;1.52;;;13.30;99.90;;;;;;5033226;28;20053;-68
2022/05/08 08:34:05;;;;;;;9.02;2.05;;;13.30;99.90;;;;;;5033669;28;20156;-65
2022/05/08 08:36:31;;;;;;;6.18;2.03;;;13.40;99.90;;;;;;5033108;28;20132;-64
2022/05/08 08:38:56;;;;;;;6.40;1.70;;;13.50;99.90;;;;;;5032099;28;20092;-65
2022/05/08 08:41:27;;;;;;;10.48;2.00;;;13.60;99.90;;;;;;5033169;28;20481;-65
2022/05/08 08:49:25;;;;;;;5.53;2.00;;;13.90;99.90;;;;;;5014211;28;20053;-67
2022/05/08 08:51:52;;;;;;;8.77;1.83;;;13.90;99.90;;;;;;5014132;28;20518;-66
2022/05/08 08:54:19;;;;;;;6.65;1.98;;;13.80;99.90;;;;;;5015180;28;20104;-66
2022/05/08 08:56:45;;;;;;;5.57;1.90;;;13.90;99.90;;;;;;5014016;28;20053;-66
2022/05/08 08:59:10;;;;;;;7.28;2.20;;;13.80;99.90;;;;;;4997990;28;20061;-66
2022/05/08 09:01:41;;;;;;;6.65;2.25;;;13.90;99.90;;;;;;5014282;28;20383;-66
2022/05/08 09:04:09;;;;;;;7.60;1.85;;;14.00;99.90;;;;;;5032368;28;20080;-66
2022/05/08 09:06:43;;;;;;;8.20;2.10;;;14.00;99.90;;;;;;5032929;28;20056;-67
2022/05/08 09:09:28;;;;;;;3.17;1.70;;;14.10;99.90;;;;;;5033629;28;20053;-65
2022/05/08 09:11:56;;;;;;;7.40;2.08;;;14.20;99.90;;;;;;5034778;28;20057;-64
2022/05/08 09:14:28;;;;;;;5.75;2.15;;;14.20;99.90;;;;;;5032514;28;20053;-64
2022/05/08 09:16:54;;;;;;;8.68;2.20;;;14.30;93.20;;;;;;5032959;28;20061;-65
2022/05/08 09:19:32;;;;;;;4.75;1.90;;;14.50;99.90;;;;;;5034591;28;20052;-63
2022/05/08 09:22:00;;;;;;;8.43;1.90;;;14.60;99.90;;;;;;5034494;28;20053;-64
2022/05/08 09:24:25;;;;;;;6.22;1.95;;;14.60;99.90;;;;;;5033322;28;20449;-65
2022/05/08 09:27:07;;;;;;;8.15;2.05;;;14.90;99.90;;;;;;5032997;28;20055;-63
2022/05/08 09:29:33;;;;;;;6.65;1.90;;;14.80;99.90;;;;;;5025826;28;20053;-64
2022/05/08 09:31:58;;;;;;;5.15;1.77;;;14.70;99.90;;;;;;5032410;28;20114;-65
2022/05/08 09:34:24;;;;;;;6.93;1.85;;;14.90;99.90;;;;;;5032945;28;20053;-64
2022/05/08 09:37:08;;;;;;;6.63;2.25;;;14.90;99.90;;;;;;5033462;28;20390;-64
2022/05/08 09:39:33;;;;;;;5.10;1.92;;;15.10;99.90;;;;;;5032191;28;20450;-66
2022/05/08 09:41:59;;;;;;;9.95;2.90;;;15.10;99.90;;;;;;5032769;28;20124;-65
2022/05/08 09:44:24;;;;;;;7.53;1.67;;;15.10;99.90;;;;;;5031674;28;20199;-64
2022/05/08 09:46:50;;;;;;;9.38;2.53;;;15.00;99.90;;;;;;5031418;28;20068;-66
2022/05/08 09:49:19;;;;;;;7.03;2.25;;;15.40;99.90;;;;;;5032618;28;20401;-65
2022/05/08 09:51:50;;;;;;;6.78;1.95;;;15.00;99.90;;;;;;5032262;28;20064;-63
2022/05/08 09:54:17;;;;;;;19.02;12.80;;;15.00;99.90;;;;;;5030489;28;20050;-65
2022/05/08 09:56:45;;;;;;;6.53;3.22;;;15.30;99.90;;;;;;5031221;28;20127;-63
2022/05/08 09:59:12;;;;;;;6.75;2.50;;;15.30;99.90;;;;;;5031759;28;20409;-66
2022/05/08 10:01:39;;;;;;;13.00;2.60;;;15.40;98.60;;;;;;5029395;28;20481;-64
2022/05/08 10:04:05;;;;;;;4.10;1.70;;;15.30;96.30;;;;;;5032189;28;20074;-64
2022/05/08 10:06:32;;;;;;;6.53;2.17;;;17.40;97.90;;;;;;5031838;28;20115;-64
2022/05/08 10:14:30;;;;;;;12.82;2.20;;;15.70;99.90;;;;;;5033494;28;20057;-66
2022/05/08 10:17:06;;;;;;;8.48;2.00;;;14.40;96.40;;;;;;5031578;28;20145;-65
2022/05/08 10:19:32;;;;;;;5.13;2.03;;;15.60;99.30;;;;;;5029615;28;20059;-65
2022/05/08 10:22:02;;;;;;;6.53;1.88;;;15.40;99.80;;;;;;5029249;28;20053;-66
2022/05/08 10:24:43;;;;;;;7.43;1.95;;;15.60;99.90;;;;;;5020872;28;20063;-65
2022/05/08 10:27:15;;;;;;;7.72;2.15;;;15.70;99.40;;;;;;5032884;28;20502;-65
2022/05/08 10:29:41;;;;;;;7.38;2.30;;;15.70;98.70;;;;;;5031328;28;20059;-64
2022/05/08 10:32:09;;;;;;;5.10;2.00;;;15.70;99.10;;;;;;5030547;28;20053;-66
2022/05/08 10:34:37;;;;;;;6.45;1.83;;;15.90;98.30;;;;;;5029921;28;20053;-67
2022/05/08 10:37:12;;;;;;;5.15;1.65;;;16.00;98.50;;;;;;5031177;28;20081;-65
2022/05/08 10:39:38;;;;;;;6.50;1.80;;;16.10;97.60;;;;;;5031426;28;20458;-68
2022/05/08 10:42:05;;;;;;;6.00;2.13;;;16.10;97.60;;;;;;5031939;28;20401;-66
2022/05/08 10:44:35;;;;;;;7.57;2.53;;;16.10;97.30;;;;;;5031013;28;20232;-67
2022/05/08 10:47:40;;;;;;;5.20;2.08;;;16.10;97.40;;;;;;5032458;28;20075;-66
2022/05/08 10:50:07;;;;;;;7.75;1.92;;;16.20;95.50;;;;;;5031111;28;20088;-67
2022/05/08 10:52:37;;;;;;;5.22;1.85;;;16.10;96.40;;;;;;5031608;28;20063;-65
2022/05/08 10:55:07;;;;;;;3.50;1.63;;;16.00;96.20;;;;;;5030497;28;20111;-68
2022/05/08 10:57:37;;;;;;;5.18;1.80;;;16.20;96.70;;;;;;5030997;28;20116;-66
2022/05/08 11:00:06;;;;;;;6.68;1.80;;;16.30;96.40;;;;;;5029800;28;20089;-65
2022/05/08 11:02:48;;;;;;;7.20;2.22;;;16.20;96.20;;;;;;5030474;28;20049;-66
2022/05/08 11:05:27;;;;;;;7.00;1.90;;;16.40;95.50;;;;;;5031097;28;20068;-67
2022/05/08 11:07:59;;;;;;;7.80;1.95;;;16.60;95.90;;;;;;5012180;28;20054;-66
2022/05/08 11:10:25;;;;;;;8.27;2.60;;;16.50;96.10;;;;;;5014506;28;20386;-67
2022/05/08 11:13:09;;;;;;;6.45;1.90;;;16.30;96.40;;;;;;5031190;28;20045;-65
2022/05/08 11:15:42;;;;;;;7.22;2.42;;;16.40;96.10;;;;;;5027914;28;20053;-67
2022/05/08 11:18:09;;;;;;;;;;;16.50;95.80;;;;;;5031560;28;20182;-69
2022/05/08 11:20:48;;;;;;;6.13;1.95;;;16.60;95.10;;;;;;5029842;28;20259;-68
2022/05/08 11:23:22;;;;;;;7.30;2.03;;;16.60;95.50;;;;;;5031446;28;20187;-66
2022/05/08 11:25:50;;;;;;;5.90;1.85;;;16.40;95.50;;;;;;5011543;28;20069;-65
2022/05/08 11:28:17;;;;;;;9.75;2.63;;;16.80;96.20;;;;;;5011386;28;20078;-67
2022/05/08 11:30:46;;;;;;;7.05;1.92;;;16.80;95.80;;;;;;5012035;28;20062;-65
2022/05/08 11:36:12;;;;;;;5.60;1.77;;;16.90;95.60;;;;;;5031845;28;20482;-67
2022/05/08 11:38:53;;;;;;;6.50;1.90;;;16.80;95.00;;;;;;5029096;28;20072;-67
2022/05/08 11:41:28;;;;;;;5.97;2.08;;;16.90;94.80;;;;;;5014824;28;20041;-67
2022/05/08 11:44:07;;;;;;;4.78;2.20;;;16.90;94.80;;;;;;5029831;28;20482;-67
2022/05/08 11:46:38;;;;;;;5.50;1.92;;;16.70;94.20;;;;;;5014246;28;20046;-66
2022/05/08 11:49:31;;;;;;;5.90;2.10;;;16.90;94.40;;;;;;5031711;28;20057;-67
2022/05/08 11:52:03;;;;;;;5.53;1.50;;;16.80;94.10;;;;;;5031484;28;20041;-67
2022/05/08 11:54:35;;;;;;;7.03;2.03;;;16.80;94.40;;;;;;5014099;28;20348;-69
2022/05/08 11:57:26;;;;;;;8.18;2.38;;;16.90;94.20;;;;;;5029228;28;20049;-67
2022/05/08 12:00:14;;;;;;;7.30;1.92;;;16.90;94.40;;;;;;5030192;28;20046;-68
2022/05/08 12:02:44;;;;;;;6.22;2.13;;;17.00;94.10;;;;;;5032483;28;20046;-67
2022/05/08 12:05:23;;;;;;;8.20;2.30;;;16.90;94.20;;;;;;5034554;28;20076;-65
2022/05/08 12:07:49;;;;;;;6.63;2.17;;;17.00;94.60;;;;;;5032413;28;20041;-65
2022/05/08 12:10:16;;;;;;;4.07;1.67;;;16.90;94.50;;;;;;5033107;28;20056;-67
2022/05/08 12:12:42;;;;;;;5.40;1.92;;;17.10;94.80;;;;;;5035604;28;20049;-68
2022/05/08 12:15:08;;;;;;;7.28;2.40;;;17.30;94.80;;;;;;5034809;28;20061;-66
2022/05/08 12:17:39;;;;;;;4.82;2.00;;;17.40;94.70;;;;;;5033565;28;20057;-68
2022/05/08 12:20:20;;;;;;;5.72;1.80;;;17.50;94.30;;;;;;5035405;28;20382;-65
2022/05/08 12:23:00;;;;;;;7.25;2.10;;;17.20;93.20;;;;;;5034260;28;20057;-66
2022/05/08 12:25:27;;;;;;;6.35;2.03;;;17.60;93.30;;;;;;5033464;28;20038;-65
2022/05/08 12:27:52;;;;;;;12.02;2.95;;;17.10;92.20;;;;;;5033915;28;20076;-68
2022/05/08 12:30:18;;;;;;;6.95;2.47;;;17.30;89.00;;;;;;5033755;28;20176;-67
2022/05/08 12:32:43;;;;;;;8.23;2.35;;;17.20;84.40;;;;;;5033151;28;20049;-65
2022/05/08 12:35:09;;;;;;;7.88;2.58;;;17.40;82.10;;;;;;5034555;28;20454;-65
2022/05/08 12:37:35;;;;;;;7.75;2.35;;;17.40;85.50;;;;;;5034510;28;20122;-67
2022/05/08 12:40:01;;;;;;;6.47;2.10;;;17.50;91.60;;;;;;5035408;28;20072;-65
2022/05/08 12:42:26;;;;;;;6.10;2.10;;;17.60;92.90;;;;;;5032337;28;20061;-65
2022/05/08 12:44:52;;;;;;;7.43;2.45;;;18.60;92.00;;;;;;5034476;28;20041;-67
2022/05/08 12:47:18;;;;;;;9.43;2.67;;;17.40;91.80;;;;;;5034564;28;20394;-67
2022/05/08 12:49:44;;;;;;;6.85;2.28;;;17.80;92.50;;;;;;5033594;28;20478;-65
2022/05/08 12:52:10;;;;;;;4.68;1.92;;;18.00;92.40;;;;;;5031715;28;20060;-67
2022/05/08 12:54:36;;;;;;;5.72;2.15;;;17.60;92.50;;;;;;5034398;28;20045;-65
2022/05/08 12:57:05;;;;;;;6.47;2.25;;;17.50;92.40;;;;;;5033553;28;20508;-65
2022/05/08 12:59:43;;;;;;;7.43;2.33;;;17.50;92.50;;;;;;5032990;28;20061;-65
2022/05/08 13:02:14;;;;;;;7.05;1.73;;;17.60;92.30;;;;;;5033397;28;20456;-66
2022/05/08 13:04:40;;;;;;;5.30;2.08;;;17.50;92.00;;;;;;5034005;28;20053;-65
2022/05/08 13:07:06;;;;;;;7.40;2.20;;;17.30;92.10;;;;;;5033872;28;20057;-67
2022/05/08 13:09:32;;;;;;;8.38;2.10;;;17.30;92.30;;;;;;5033909;28;20132;-66
2022/05/08 13:11:58;;;;;;;6.22;2.08;;;17.20;92.30;;;;;;5033189;28;20100;-66
2022/05/08 13:14:24;;;;;;;3.90;1.80;;;17.30;92.50;;;;;;5031461;28;20045;-65
2022/05/08 13:16:50;;;;;;;5.15;2.05;;;17.20;92.30;;;;;;5031832;28;20049;-67
2022/05/08 13:19:16;;;;;;;8.50;2.20;;;16.80;92.10;;;;;;5033428;28;20102;-65
2022/05/08 13:21:43;;;;;;;7.25;2.00;;;17.00;92.20;;;;;;5029424;28;20050;-65
2022/05/08 13:24:10;;;;;;;5.60;2.25;;;17.40;92.10;;;;;;5027666;28;20128;-65